createdAt,value
2023-05-02T04:17:35.974Z,9.10
2023-05-02T04:20:46.784Z,9.12
2023-05-02T04:23:55.670Z,9.27
2023-05-02T04:27:06.530Z,9.39
2023-05-02T04:30:15.385Z,9.47
2023-05-02T04:33:21.877Z,9.60
2023-05-02T04:36:30.242Z,9.76
2023-05-02T04:39:39.900Z,9.90
2023-05-02T04:42:48.087Z,10.05
2023-05-02T04:45:55.928Z,10.20
2023-05-02T04:49:05.803Z,10.48
2023-05-02T04:52:14.088Z,10.68
2023-05-02T04:55:21.757Z,10.76
2023-05-02T04:58:30.371Z,10.79
2023-05-02T05:01:38.069Z,10.94
2023-05-02T05:04:47.165Z,11.25
2023-05-02T05:07:53.708Z,11.53
2023-05-02T05:11:03.672Z,11.82
2023-05-02T05:14:10.810Z,11.88
2023-05-02T05:17:16.400Z,12.31
2023-05-02T05:20:20.206Z,12.60
2023-05-02T05:23:28.581Z,12.64
2023-05-02T05:26:35.940Z,12.99
2023-05-02T05:29:44.675Z,14.05
2023-05-02T05:32:51.444Z,14.49
2023-05-02T05:35:58.035Z,14.16
2023-05-02T05:39:05.947Z,14.65
2023-05-02T05:42:14.030Z,15.26
2023-05-02T05:45:23.846Z,15.96
2023-05-02T05:48:30.140Z,16.12
2023-05-02T05:51:38.753Z,16.54
2023-05-02T05:54:45.692Z,16.64
2023-05-02T05:57:51.479Z,16.27
2023-05-02T06:00:57.540Z,16.48
2023-05-02T06:04:01.305Z,17.02
2023-05-02T06:07:04.426Z,17.54
2023-05-02T06:10:10.078Z,18.13
2023-05-02T06:13:14.385Z,19.00
2023-05-02T06:16:20.493Z,20.03
2023-05-02T06:19:27.105Z,20.80
2023-05-02T06:22:32.593Z,21.65
2023-05-02T06:25:39.214Z,21.87
2023-05-02T06:28:42.308Z,21.59
2023-05-02T06:31:44.934Z,21.62
2023-05-02T06:34:47.913Z,21.35
2023-05-02T06:37:50.956Z,20.81
2023-05-02T06:43:57.854Z,19.93
2023-05-02T06:47:01.960Z,20.34
2023-05-02T06:50:06.817Z,20.34
2023-05-02T06:53:11.610Z,20.12
2023-05-02T06:56:15.964Z,20.45
2023-05-02T06:59:21.165Z,20.98
2023-05-02T07:02:24.527Z,21.92
2023-05-02T07:05:30.823Z,21.06
2023-05-02T07:08:36.809Z,21.14
2023-05-02T07:11:43.054Z,21.85
2023-05-02T07:14:48.021Z,20.90
2023-05-02T07:17:52.997Z,20.07
2023-05-02T07:20:56.003Z,21.03
2023-05-02T07:24:00.760Z,21.32
2023-05-02T07:27:06.426Z,20.49
2023-05-02T07:30:10.458Z,20.89
2023-05-02T07:33:15.714Z,21.42
2023-05-02T07:36:20.043Z,21.62
2023-05-02T07:39:25.951Z,21.63
2023-05-02T07:42:34.448Z,21.06
2023-05-02T07:45:39.491Z,20.32
2023-05-02T07:48:47.401Z,21.05
2023-05-02T07:51:53.410Z,21.28
2023-05-02T07:55:00.387Z,21.81
2023-05-02T07:58:06.851Z,21.94
2023-05-02T08:01:10.465Z,22.09
2023-05-02T08:04:14.925Z,22.01
2023-05-02T08:07:18.938Z,21.99
2023-05-02T08:10:25.420Z,22.69
2023-05-02T08:13:30.817Z,22.88
2023-05-02T08:16:35.365Z,22.60
2023-05-02T08:19:39.210Z,23.71
2023-05-02T08:22:42.968Z,23.58
2023-05-02T08:25:46.510Z,23.74
2023-05-02T08:28:50.651Z,24.17
2023-05-02T08:31:54.366Z,24.17
2023-05-02T08:38:23.254Z,24.33
2023-05-02T08:41:29.712Z,24.57
2023-05-02T08:44:33.791Z,24.90
2023-05-02T08:47:40.938Z,25.20
2023-05-02T08:50:47.120Z,24.44
2023-05-02T08:53:54.189Z,24.13
2023-05-02T08:56:59.695Z,23.57
2023-05-02T09:00:05.494Z,23.52
2023-05-02T09:03:36.346Z,24.12
2023-05-02T09:06:44.262Z,24.80
2023-05-02T09:09:51.481Z,25.24
2023-05-02T09:12:59.033Z,26.10
2023-05-02T09:16:08.832Z,25.45
2023-05-02T09:19:26.584Z,24.46
2023-05-02T09:22:34.269Z,23.62
2023-05-02T09:25:42.379Z,24.26
2023-05-02T09:28:56.374Z,24.22
2023-05-02T09:32:06.086Z,24.91
2023-05-02T09:35:15.002Z,25.16
2023-05-02T09:38:23.395Z,25.40
2023-05-02T09:41:40.664Z,25.14
2023-05-02T09:44:48.855Z,24.39
2023-05-02T09:47:54.454Z,25.03
2023-05-02T09:51:00.239Z,25.23
2023-05-02T09:54:05.645Z,26.63
2023-05-02T09:57:12.276Z,26.97
2023-05-02T10:00:23.049Z,27.17
2023-05-02T10:03:30.437Z,27.62
2023-05-02T10:06:36.627Z,27.22
2023-05-02T10:09:45.211Z,27.40
2023-05-02T10:12:52.982Z,28.02
2023-05-02T10:16:08.914Z,26.30
2023-05-02T10:19:14.416Z,26.81
2023-05-02T10:22:20.564Z,26.46
2023-05-02T10:25:28.220Z,26.27
2023-05-02T10:28:34.945Z,26.19
2023-05-02T10:31:41.883Z,27.44
2023-05-02T10:34:51.061Z,28.12
2023-05-02T10:37:55.664Z,29.50
2023-05-02T10:41:35.447Z,29.63
2023-05-02T10:44:42.166Z,29.43
2023-05-02T10:47:46.941Z,28.91
2023-05-02T10:50:51.449Z,28.05
2023-05-02T10:53:54.927Z,26.06
2023-05-02T10:57:03.736Z,25.40
2023-05-02T11:00:22.252Z,25.06
2023-05-02T11:03:58.856Z,25.42
2023-05-02T11:07:06.762Z,25.38
2023-05-02T11:10:18.863Z,25.69
2023-05-02T11:13:51.076Z,25.75
2023-05-02T11:17:05.132Z,24.88
2023-05-02T11:20:09.751Z,25.68
2023-05-02T11:23:17.555Z,26.23
2023-05-02T11:26:23.453Z,26.48
2023-05-02T11:29:55.455Z,25.67
2023-05-02T11:33:05.486Z,25.38
2023-05-02T11:36:10.191Z,24.77
2023-05-02T11:39:21.162Z,24.05
2023-05-02T11:42:31.362Z,24.96
2023-05-02T11:45:39.723Z,25.08
2023-05-02T11:48:42.998Z,24.58
2023-05-02T11:51:46.946Z,24.97
2023-05-02T11:54:55.625Z,24.48
2023-05-02T11:58:00.319Z,24.57
2023-05-02T12:01:15.101Z,24.92
2023-05-02T12:04:25.069Z,24.65
2023-05-02T12:07:40.590Z,24.55
2023-05-02T12:10:47.336Z,24.53
2023-05-02T12:13:51.380Z,24.81
2023-05-02T12:16:56.254Z,24.98
2023-05-02T12:20:01.781Z,25.24
2023-05-02T12:23:07.474Z,25.41
2023-05-02T12:26:26.685Z,25.59
2023-05-02T12:29:41.448Z,25.04
2023-05-02T12:32:45.781Z,24.92
2023-05-02T12:35:54.962Z,24.76
2023-05-02T12:39:00.488Z,25.00
2023-05-02T12:42:16.243Z,25.41
2023-05-02T12:45:22.405Z,24.60
2023-05-02T12:48:29.147Z,24.12
2023-05-02T12:51:33.829Z,24.81
2023-05-02T12:54:38.012Z,24.62
2023-05-02T12:57:44.364Z,24.51
2023-05-02T13:00:51.600Z,24.25
2023-05-02T13:03:57.886Z,24.23
2023-05-02T13:07:03.827Z,24.17
2023-05-02T13:10:10.511Z,23.96
2023-05-02T13:13:17.170Z,24.04
2023-05-02T13:16:22.415Z,24.03
2023-05-02T13:19:31.611Z,23.99
2023-05-02T13:22:38.623Z,23.60
2023-05-02T13:25:45.252Z,23.42
2023-05-02T13:28:51.253Z,23.49
2023-05-02T13:31:56.412Z,23.46
2023-05-02T13:35:03.251Z,23.36
2023-05-02T13:38:09.265Z,23.24
2023-05-02T13:41:15.197Z,23.08
2023-05-02T13:44:21.656Z,23.09
2023-05-02T13:47:27.029Z,23.22
2023-05-02T13:50:33.666Z,23.29
2023-05-02T13:53:41.327Z,23.29
2023-05-02T13:56:49.515Z,23.29
2023-05-02T13:59:57.503Z,23.10
2023-05-02T14:03:07.340Z,22.89
2023-05-02T14:06:14.099Z,22.87
2023-05-02T14:09:20.999Z,22.79
2023-05-02T14:12:26.481Z,22.74
2023-05-02T14:15:35.074Z,22.46
2023-05-02T14:18:45.271Z,22.29
2023-05-02T14:21:52.926Z,22.24
2023-05-02T14:25:01.778Z,22.05
2023-05-02T14:28:09.001Z,21.91
2023-05-02T14:31:17.885Z,22.00
2023-05-02T14:34:29.248Z,22.17
2023-05-02T14:37:37.580Z,22.15
2023-05-02T14:40:45.940Z,22.22
2023-05-02T14:43:55.204Z,22.23
2023-05-02T14:47:02.862Z,22.36
2023-05-02T14:50:13.403Z,22.26
2023-05-02T14:53:21.516Z,22.39
2023-05-02T14:56:30.458Z,22.52
2023-05-02T14:59:36.977Z,22.56
2023-05-02T15:02:47.089Z,22.45
2023-05-02T15:05:53.736Z,22.51
2023-05-02T15:09:04.924Z,22.51
2023-05-02T15:12:11.282Z,22.54
2023-05-02T15:15:26.869Z,22.49
2023-05-02T15:18:34.742Z,22.43
2023-05-02T15:21:42.101Z,22.40
